sensor_id;sensor_type;location;lat;lon;timestamp;P1;durP1;ratioP1;P2;durP2;ratioP2
3369;SDS011;42042;51.948;7.628;2023-04-15T00:01:47;9.80;;;8.27;;
3369;SDS011;42042;51.948;7.628;2023-04-15T00:04:16;11.18;;;8.77;;
3369;SDS011;42042;51.948;7.628;2023-04-15T00:06:48;13.93;;;8.65;;
3369;SDS011;42042;51.948;7.628;2023-04-15T00:09:17;9.40;;;8.52;;
3369;SDS011;42042;51.948;7.628;2023-04-15T00:11:44;9.83;;;8.13;;
3369;SDS011;42042;51.948;7.628;2023-04-15T00:14:11;10.20;;;9.20;;
3369;SDS011;42042;51.948;7.628;2023-04-15T00:16:41;11.50;;;8.03;;
3369;SDS011;42042;51.948;7.628;2023-04-15T00:19:10;9.93;;;8.40;;
3369;SDS011;42042;51.948;7.628;2023-04-15T00:21:37;10.95;;;8.82;;
3369;SDS011;42042;51.948;7.628;2023-04-15T00:24:04;13.27;;;8.47;;
3369;SDS011;42042;51.948;7.628;2023-04-15T00:26:31;13.32;;;9.63;;
3369;SDS011;42042;51.948;7.628;2023-04-15T00:28:59;11.07;;;9.50;;
3369;SDS011;42042;51.948;7.628;2023-04-15T00:31:26;11.27;;;8.80;;
3369;SDS011;42042;51.948;7.628;2023-04-15T00:33:54;10.05;;;8.95;;
3369;SDS011;42042;51.948;7.628;2023-04-15T00:36:22;12.70;;;8.55;;
3369;SDS011;42042;51.948;7.628;2023-04-15T00:38:50;13.20;;;9.67;;
3369;SDS011;42042;51.948;7.628;2023-04-15T00:41:19;11.50;;;8.47;;
3369;SDS011;42042;51.948;7.628;2023-04-15T00:43:47;11.83;;;9.07;;
3369;SDS011;42042;51.948;7.628;2023-04-15T00:46:14;12.48;;;9.38;;
3369;SDS011;42042;51.948;7.628;2023-04-15T00:48:41;9.43;;;8.40;;
3369;SDS011;42042;51.948;7.628;2023-04-15T00:51:11;9.10;;;8.20;;
3369;SDS011;42042;51.948;7.628;2023-04-15T00:53:41;11.88;;;9.43;;
3369;SDS011;42042;51.948;7.628;2023-04-15T00:56:08;10.27;;;9.27;;
3369;SDS011;42042;51.948;7.628;2023-04-15T00:58:35;9.77;;;8.75;;
3369;SDS011;42042;51.948;7.628;2023-04-15T01:01:03;14.45;;;9.38;;
3369;SDS011;42042;51.948;7.628;2023-04-15T01:03:30;11.65;;;9.68;;
3369;SDS011;42042;51.948;7.628;2023-04-15T01:05:57;10.40;;;9.30;;
3369;SDS011;42042;51.948;7.628;2023-04-15T01:08:26;17.77;;;10.15;;
3369;SDS011;42042;51.948;7.628;2023-04-15T01:10:54;11.60;;;8.80;;
3369;SDS011;42042;51.948;7.628;2023-04-15T01:13:22;9.97;;;8.83;;
3369;SDS011;42042;51.948;7.628;2023-04-15T01:15:50;11.50;;;10.13;;
3369;SDS011;42042;51.948;7.628;2023-04-15T01:18:18;11.60;;;9.55;;
3369;SDS011;42042;51.948;7.628;2023-04-15T01:20:47;11.55;;;9.65;;
3369;SDS011;42042;51.948;7.628;2023-04-15T01:23:15;13.40;;;10.25;;
3369;SDS011;42042;51.948;7.628;2023-04-15T01:25:43;11.50;;;10.30;;
3369;SDS011;42042;51.948;7.628;2023-04-15T01:28:11;14.20;;;9.33;;
3369;SDS011;42042;51.948;7.628;2023-04-15T01:30:38;11.60;;;10.35;;
3369;SDS011;42042;51.948;7.628;2023-04-15T01:33:05;11.60;;;10.20;;
3369;SDS011;42042;51.948;7.628;2023-04-15T01:35:37;11.52;;;9.52;;
3369;SDS011;42042;51.948;7.628;2023-04-15T01:38:04;13.45;;;10.60;;
3369;SDS011;42042;51.948;7.628;2023-04-15T01:40:32;12.23;;;10.68;;
3369;SDS011;42042;51.948;7.628;2023-04-15T01:43:00;12.95;;;11.15;;
3369;SDS011;42042;51.948;7.628;2023-04-15T01:45:28;11.88;;;10.15;;
3369;SDS011;42042;51.948;7.628;2023-04-15T01:47:55;13.75;;;10.13;;
3369;SDS011;42042;51.948;7.628;2023-04-15T01:50:22;23.35;;;11.55;;
3369;SDS011;42042;51.948;7.628;2023-04-15T01:52:50;15.65;;;10.73;;
3369;SDS011;42042;51.948;7.628;2023-04-15T01:55:19;12.20;;;10.25;;
3369;SDS011;42042;51.948;7.628;2023-04-15T01:57:46;12.02;;;10.45;;
3369;SDS011;42042;51.948;7.628;2023-04-15T02:00:15;11.50;;;9.77;;
3369;SDS011;42042;51.948;7.628;2023-04-15T02:02:45;12.20;;;10.68;;
3369;SDS011;42042;51.948;7.628;2023-04-15T02:05:12;12.75;;;10.48;;
3369;SDS011;42042;51.948;7.628;2023-04-15T02:07:42;12.27;;;10.55;;
3369;SDS011;42042;51.948;7.628;2023-04-15T02:10:12;11.73;;;10.52;;
3369;SDS011;42042;51.948;7.628;2023-04-15T02:12:40;14.18;;;10.60;;
3369;SDS011;42042;51.948;7.628;2023-04-15T02:15:08;13.00;;;10.65;;
3369;SDS011;42042;51.948;7.628;2023-04-15T02:17:37;15.10;;;10.30;;
3369;SDS011;42042;51.948;7.628;2023-04-15T02:20:05;12.45;;;10.75;;
3369;SDS011;42042;51.948;7.628;2023-04-15T02:22:32;12.52;;;11.00;;
3369;SDS011;42042;51.948;7.628;2023-04-15T02:24:59;12.27;;;10.38;;
3369;SDS011;42042;51.948;7.628;2023-04-15T02:27:29;12.13;;;10.85;;
3369;SDS011;42042;51.948;7.628;2023-04-15T02:29:56;11.80;;;10.60;;
3369;SDS011;42042;51.948;7.628;2023-04-15T02:32:24;13.30;;;11.00;;
3369;SDS011;42042;51.948;7.628;2023-04-15T02:34:52;16.20;;;11.43;;
3369;SDS011;42042;51.948;7.628;2023-04-15T02:37:19;11.50;;;10.30;;
3369;SDS011;42042;51.948;7.628;2023-04-15T02:39:47;15.57;;;11.52;;
3369;SDS011;42042;51.948;7.628;2023-04-15T02:42:14;13.95;;;10.27;;
3369;SDS011;42042;51.948;7.628;2023-04-15T02:44:41;14.10;;;11.90;;
3369;SDS011;42042;51.948;7.628;2023-04-15T02:47:08;12.20;;;10.90;;
3369;SDS011;42042;51.948;7.628;2023-04-15T02:49:36;11.55;;;10.35;;
3369;SDS011;42042;51.948;7.628;2023-04-15T02:52:05;13.02;;;11.30;;
3369;SDS011;42042;51.948;7.628;2023-04-15T02:54:33;14.00;;;11.98;;
3369;SDS011;42042;51.948;7.628;2023-04-15T02:57:00;14.80;;;11.32;;
3369;SDS011;42042;51.948;7.628;2023-04-15T02:59:30;12.50;;;11.00;;
3369;SDS011;42042;51.948;7.628;2023-04-15T03:01:57;13.32;;;10.63;;
3369;SDS011;42042;51.948;7.628;2023-04-15T03:04:25;12.93;;;11.52;;
3369;SDS011;42042;51.948;7.628;2023-04-15T03:06:54;13.82;;;11.65;;
3369;SDS011;42042;51.948;7.628;2023-04-15T03:09:22;12.48;;;11.13;;
3369;SDS011;42042;51.948;7.628;2023-04-15T03:11:52;15.85;;;12.32;;
3369;SDS011;42042;51.948;7.628;2023-04-15T03:14:20;15.60;;;11.77;;
3369;SDS011;42042;51.948;7.628;2023-04-15T03:16:48;14.60;;;12.40;;
3369;SDS011;42042;51.948;7.628;2023-04-15T03:19:16;14.93;;;11.40;;
3369;SDS011;42042;51.948;7.628;2023-04-15T03:21:43;14.90;;;12.52;;
3369;SDS011;42042;51.948;7.628;2023-04-15T03:24:10;15.25;;;12.52;;
3369;SDS011;42042;51.948;7.628;2023-04-15T03:26:39;14.68;;;13.18;;
3369;SDS011;42042;51.948;7.628;2023-04-15T03:29:06;17.45;;;12.40;;
3369;SDS011;42042;51.948;7.628;2023-04-15T03:31:33;14.55;;;11.93;;
3369;SDS011;42042;51.948;7.628;2023-04-15T03:34:00;13.65;;;12.15;;
3369;SDS011;42042;51.948;7.628;2023-04-15T03:36:27;17.02;;;13.55;;
3369;SDS011;42042;51.948;7.628;2023-04-15T03:38:55;16.27;;;12.00;;
3369;SDS011;42042;51.948;7.628;2023-04-15T03:41:22;13.55;;;12.10;;
3369;SDS011;42042;51.948;7.628;2023-04-15T03:43:53;16.55;;;12.40;;
3369;SDS011;42042;51.948;7.628;2023-04-15T03:46:20;16.33;;;14.27;;
3369;SDS011;42042;51.948;7.628;2023-04-15T03:48:48;13.98;;;11.38;;
3369;SDS011;42042;51.948;7.628;2023-04-15T03:51:15;14.02;;;11.68;;
3369;SDS011;42042;51.948;7.628;2023-04-15T03:53:42;16.25;;;12.13;;
3369;SDS011;42042;51.948;7.628;2023-04-15T03:56:10;17.45;;;13.02;;
3369;SDS011;42042;51.948;7.628;2023-04-15T03:58:37;16.23;;;14.13;;
3369;SDS011;42042;51.948;7.628;2023-04-15T04:01:07;15.82;;;12.55;;
3369;SDS011;42042;51.948;7.628;2023-04-15T04:03:35;14.73;;;12.15;;
3369;SDS011;42042;51.948;7.628;2023-04-15T04:06:05;16.58;;;11.38;;
3369;SDS011;42042;51.948;7.628;2023-04-15T04:08:32;15.00;;;13.27;;
3369;SDS011;42042;51.948;7.628;2023-04-15T04:10:59;14.55;;;12.48;;
3369;SDS011;42042;51.948;7.628;2023-04-15T04:13:26;15.82;;;13.60;;
3369;SDS011;42042;51.948;7.628;2023-04-15T04:15:54;18.35;;;15.13;;
3369;SDS011;42042;51.948;7.628;2023-04-15T04:18:22;16.42;;;13.35;;
3369;SDS011;42042;51.948;7.628;2023-04-15T04:20:49;16.75;;;14.13;;
3369;SDS011;42042;51.948;7.628;2023-04-15T04:23:17;14.68;;;12.85;;
3369;SDS011;42042;51.948;7.628;2023-04-15T04:25:44;17.10;;;13.48;;
3369;SDS011;42042;51.948;7.628;2023-04-15T04:28:14;21.38;;;14.27;;
3369;SDS011;42042;51.948;7.628;2023-04-15T04:30:43;19.48;;;13.27;;
3369;SDS011;42042;51.948;7.628;2023-04-15T04:33:10;15.88;;;12.25;;
3369;SDS011;42042;51.948;7.628;2023-04-15T04:35:41;20.88;;;14.95;;
3369;SDS011;42042;51.948;7.628;2023-04-15T04:38:08;16.20;;;13.65;;
3369;SDS011;42042;51.948;7.628;2023-04-15T04:40:35;15.98;;;12.45;;
3369;SDS011;42042;51.948;7.628;2023-04-15T04:43:02;17.88;;;13.30;;
3369;SDS011;42042;51.948;7.628;2023-04-15T04:45:30;16.67;;;13.48;;
3369;SDS011;42042;51.948;7.628;2023-04-15T04:47:57;15.55;;;12.75;;
3369;SDS011;42042;51.948;7.628;2023-04-15T04:50:24;17.27;;;13.45;;
3369;SDS011;42042;51.948;7.628;2023-04-15T04:52:55;16.42;;;13.07;;
3369;SDS011;42042;51.948;7.628;2023-04-15T04:55:22;16.85;;;14.32;;
3369;SDS011;42042;51.948;7.628;2023-04-15T04:57:50;20.02;;;13.48;;
3369;SDS011;42042;51.948;7.628;2023-04-15T05:00:19;23.45;;;16.00;;
3369;SDS011;42042;51.948;7.628;2023-04-15T05:02:46;17.25;;;14.70;;
3369;SDS011;42042;51.948;7.628;2023-04-15T05:05:14;15.50;;;13.55;;
3369;SDS011;42042;51.948;7.628;2023-04-15T05:07:41;16.25;;;14.43;;
3369;SDS011;42042;51.948;7.628;2023-04-15T05:10:10;18.67;;;13.90;;
3369;SDS011;42042;51.948;7.628;2023-04-15T05:12:39;16.95;;;13.90;;
3369;SDS011;42042;51.948;7.628;2023-04-15T05:15:07;19.90;;;15.43;;
3369;SDS011;42042;51.948;7.628;2023-04-15T05:17:34;19.13;;;14.65;;
3369;SDS011;42042;51.948;7.628;2023-04-15T05:20:01;20.08;;;15.27;;
3369;SDS011;42042;51.948;7.628;2023-04-15T05:22:29;18.92;;;15.40;;
3369;SDS011;42042;51.948;7.628;2023-04-15T05:24:58;20.42;;;16.00;;
3369;SDS011;42042;51.948;7.628;2023-04-15T05:27:30;18.75;;;15.35;;
3369;SDS011;42042;51.948;7.628;2023-04-15T05:30:00;18.42;;;15.18;;
3369;SDS011;42042;51.948;7.628;2023-04-15T05:32:27;17.48;;;13.82;;
3369;SDS011;42042;51.948;7.628;2023-04-15T05:34:54;25.85;;;17.10;;
3369;SDS011;42042;51.948;7.628;2023-04-15T05:37:21;17.15;;;13.55;;
3369;SDS011;42042;51.948;7.628;2023-04-15T05:39:48;17.80;;;14.30;;
3369;SDS011;42042;51.948;7.628;2023-04-15T05:42:16;17.85;;;15.07;;
3369;SDS011;42042;51.948;7.628;2023-04-15T05:44:44;17.85;;;14.65;;
3369;SDS011;42042;51.948;7.628;2023-04-15T05:47:11;17.08;;;13.93;;
3369;SDS011;42042;51.948;7.628;2023-04-15T05:49:39;21.77;;;15.95;;
3369;SDS011;42042;51.948;7.628;2023-04-15T05:52:06;18.70;;;14.60;;
3369;SDS011;42042;51.948;7.628;2023-04-15T05:54:33;18.25;;;14.02;;
3369;SDS011;42042;51.948;7.628;2023-04-15T05:57:02;17.90;;;15.23;;
3369;SDS011;42042;51.948;7.628;2023-04-15T05:59:29;20.17;;;16.02;;
3369;SDS011;42042;51.948;7.628;2023-04-15T06:01:59;18.90;;;15.65;;
3369;SDS011;42042;51.948;7.628;2023-04-15T06:04:26;19.60;;;14.73;;
3369;SDS011;42042;51.948;7.628;2023-04-15T06:06:57;15.57;;;13.88;;
3369;SDS011;42042;51.948;7.628;2023-04-15T06:09:24;19.90;;;14.43;;
3369;SDS011;42042;51.948;7.628;2023-04-15T06:11:52;17.75;;;14.30;;
3369;SDS011;42042;51.948;7.628;2023-04-15T06:14:20;19.45;;;14.45;;
3369;SDS011;42042;51.948;7.628;2023-04-15T06:16:47;19.45;;;14.85;;
3369;SDS011;42042;51.948;7.628;2023-04-15T06:19:16;17.83;;;14.88;;
3369;SDS011;42042;51.948;7.628;2023-04-15T06:21:43;17.85;;;14.00;;
3369;SDS011;42042;51.948;7.628;2023-04-15T06:24:11;18.80;;;14.65;;
3369;SDS011;42042;51.948;7.628;2023-04-15T06:26:38;23.25;;;15.13;;
3369;SDS011;42042;51.948;7.628;2023-04-15T06:29:05;19.45;;;15.40;;
3369;SDS011;42042;51.948;7.628;2023-04-15T06:31:34;17.17;;;14.15;;
3369;SDS011;42042;51.948;7.628;2023-04-15T06:34:01;19.63;;;15.05;;
3369;SDS011;42042;51.948;7.628;2023-04-15T06:36:30;21.00;;;16.70;;
3369;SDS011;42042;51.948;7.628;2023-04-15T06:38:57;21.08;;;15.95;;
3369;SDS011;42042;51.948;7.628;2023-04-15T06:41:27;17.85;;;15.05;;
3369;SDS011;42042;51.948;7.628;2023-04-15T06:43:56;20.38;;;16.08;;
3369;SDS011;42042;51.948;7.628;2023-04-15T06:46:24;19.73;;;14.55;;
3369;SDS011;42042;51.948;7.628;2023-04-15T06:48:51;18.42;;;13.70;;
3369;SDS011;42042;51.948;7.628;2023-04-15T06:51:18;21.83;;;14.60;;
3369;SDS011;42042;51.948;7.628;2023-04-15T06:53:47;19.33;;;15.13;;
3369;SDS011;42042;51.948;7.628;2023-04-15T06:56:16;25.08;;;15.27;;
3369;SDS011;42042;51.948;7.628;2023-04-15T06:58:43;18.65;;;15.40;;
3369;SDS011;42042;51.948;7.628;2023-04-15T07:01:10;19.05;;;15.00;;
3369;SDS011;42042;51.948;7.628;2023-04-15T07:03:38;19.50;;;15.43;;
3369;SDS011;42042;51.948;7.628;2023-04-15T07:06:05;21.02;;;15.05;;
3369;SDS011;42042;51.948;7.628;2023-04-15T07:08:34;19.08;;;14.13;;
3369;SDS011;42042;51.948;7.628;2023-04-15T07:11:02;18.35;;;15.40;;
3369;SDS011;42042;51.948;7.628;2023-04-15T07:13:30;20.48;;;15.43;;
3369;SDS011;42042;51.948;7.628;2023-04-15T07:15:58;20.05;;;14.80;;
3369;SDS011;42042;51.948;7.628;2023-04-15T07:18:26;18.65;;;14.82;;
3369;SDS011;42042;51.948;7.628;2023-04-15T07:20:53;18.42;;;13.60;;
3369;SDS011;42042;51.948;7.628;2023-04-15T07:23:20;20.35;;;13.70;;
3369;SDS011;42042;51.948;7.628;2023-04-15T07:25:47;17.38;;;14.93;;
3369;SDS011;42042;51.948;7.628;2023-04-15T07:28:17;20.67;;;17.00;;
3369;SDS011;42042;51.948;7.628;2023-04-15T07:30:44;18.00;;;13.95;;
3369;SDS011;42042;51.948;7.628;2023-04-15T07:33:11;19.58;;;14.45;;
3369;SDS011;42042;51.948;7.628;2023-04-15T07:35:39;17.17;;;13.98;;
3369;SDS011;42042;51.948;7.628;2023-04-15T07:38:07;20.30;;;15.60;;
3369;SDS011;42042;51.948;7.628;2023-04-15T07:40:36;19.73;;;15.50;;
3369;SDS011;42042;51.948;7.628;2023-04-15T07:43:04;22.75;;;16.85;;
3369;SDS011;42042;51.948;7.628;2023-04-15T07:45:32;21.05;;;14.52;;
3369;SDS011;42042;51.948;7.628;2023-04-15T07:48:00;16.58;;;13.88;;
3369;SDS011;42042;51.948;7.628;2023-04-15T07:50:27;18.73;;;14.35;;
3369;SDS011;42042;51.948;7.628;2023-04-15T07:52:55;18.80;;;14.57;;
3369;SDS011;42042;51.948;7.628;2023-04-15T07:55:25;15.45;;;13.02;;
3369;SDS011;42042;51.948;7.628;2023-04-15T07:57:52;19.27;;;14.18;;
3369;SDS011;42042;51.948;7.628;2023-04-15T08:00:21;15.73;;;14.05;;
3369;SDS011;42042;51.948;7.628;2023-04-15T08:02:50;15.15;;;13.55;;
3369;SDS011;42042;51.948;7.628;2023-04-15T08:05:17;15.73;;;13.93;;
3369;SDS011;42042;51.948;7.628;2023-04-15T08:07:45;16.33;;;13.65;;
3369;SDS011;42042;51.948;7.628;2023-04-15T08:10:13;16.50;;;14.07;;
3369;SDS011;42042;51.948;7.628;2023-04-15T08:12:40;17.88;;;13.55;;
3369;SDS011;42042;51.948;7.628;2023-04-15T08:15:07;16.75;;;13.75;;
3369;SDS011;42042;51.948;7.628;2023-04-15T08:17:38;15.30;;;13.55;;
3369;SDS011;42042;51.948;7.628;2023-04-15T08:20:07;17.50;;;13.75;;
3369;SDS011;42042;51.948;7.628;2023-04-15T08:22:34;20.25;;;14.80;;
3369;SDS011;42042;51.948;7.628;2023-04-15T08:25:01;16.05;;;12.18;;
3369;SDS011;42042;51.948;7.628;2023-04-15T08:27:28;21.15;;;13.85;;
3369;SDS011;42042;51.948;7.628;2023-04-15T08:29:55;16.88;;;13.02;;
3369;SDS011;42042;51.948;7.628;2023-04-15T08:32:23;18.95;;;13.45;;
3369;SDS011;42042;51.948;7.628;2023-04-15T08:34:50;31.85;;;14.80;;
3369;SDS011;42042;51.948;7.628;2023-04-15T08:37:19;20.92;;;14.57;;
3369;SDS011;42042;51.948;7.628;2023-04-15T08:39:47;18.85;;;13.85;;
3369;SDS011;42042;51.948;7.628;2023-04-15T08:42:15;16.83;;;13.35;;
3369;SDS011;42042;51.948;7.628;2023-04-15T08:44:44;16.77;;;13.05;;
3369;SDS011;42042;51.948;7.628;2023-04-15T08:47:12;13.98;;;11.10;;
3369;SDS011;42042;51.948;7.628;2023-04-15T08:49:42;15.55;;;11.70;;
3369;SDS011;42042;51.948;7.628;2023-04-15T08:52:09;19.88;;;13.52;;
3369;SDS011;42042;51.948;7.628;2023-04-15T08:54:38;21.27;;;11.75;;
3369;SDS011;42042;51.948;7.628;2023-04-15T08:57:09;15.32;;;11.40;;
3369;SDS011;42042;51.948;7.628;2023-04-15T08:59:39;14.82;;;11.25;;
3369;SDS011;42042;51.948;7.628;2023-04-15T09:02:07;16.58;;;13.15;;
3369;SDS011;42042;51.948;7.628;2023-04-15T09:04:34;11.85;;;9.23;;
3369;SDS011;42042;51.948;7.628;2023-04-15T09:07:05;15.20;;;12.32;;
3369;SDS011;42042;51.948;7.628;2023-04-15T09:09:32;14.15;;;11.10;;
3369;SDS011;42042;51.948;7.628;2023-04-15T09:12:02;14.18;;;11.45;;
3369;SDS011;42042;51.948;7.628;2023-04-15T09:17:03;16.80;;;11.93;;
3369;SDS011;42042;51.948;7.628;2023-04-15T09:19:33;15.90;;;10.75;;
3369;SDS011;42042;51.948;7.628;2023-04-15T09:22:00;16.70;;;11.70;;
3369;SDS011;42042;51.948;7.628;2023-04-15T09:24:32;14.20;;;10.20;;
3369;SDS011;42042;51.948;7.628;2023-04-15T09:27:06;14.37;;;11.57;;
3369;SDS011;42042;51.948;7.628;2023-04-15T09:29:33;14.43;;;10.52;;
3369;SDS011;42042;51.948;7.628;2023-04-15T09:32:11;13.80;;;10.82;;
3369;SDS011;42042;51.948;7.628;2023-04-15T09:34:38;12.65;;;9.43;;
3369;SDS011;42042;51.948;7.628;2023-04-15T09:37:05;13.02;;;10.05;;
3369;SDS011;42042;51.948;7.628;2023-04-15T09:39:44;13.97;;;10.27;;
3369;SDS011;42042;51.948;7.628;2023-04-15T09:42:15;12.35;;;10.02;;
3369;SDS011;42042;51.948;7.628;2023-04-15T09:44:48;12.37;;;9.80;;
3369;SDS011;42042;51.948;7.628;2023-04-15T09:47:27;13.38;;;9.77;;
3369;SDS011;42042;51.948;7.628;2023-04-15T09:49:57;11.50;;;9.80;;
3369;SDS011;42042;51.948;7.628;2023-04-15T09:52:24;12.40;;;9.40;;
3369;SDS011;42042;51.948;7.628;2023-04-15T09:54:52;16.63;;;9.80;;
3369;SDS011;42042;51.948;7.628;2023-04-15T09:57:22;13.10;;;10.55;;
3369;SDS011;42042;51.948;7.628;2023-04-15T09:59:49;13.00;;;10.30;;
3369;SDS011;42042;51.948;7.628;2023-04-15T10:02:22;13.70;;;11.13;;
3369;SDS011;42042;51.948;7.628;2023-04-15T10:04:49;12.30;;;11.00;;
3369;SDS011;42042;51.948;7.628;2023-04-15T10:07:19;12.97;;;10.57;;
3369;SDS011;42042;51.948;7.628;2023-04-15T10:09:47;12.48;;;8.98;;
3369;SDS011;42042;51.948;7.628;2023-04-15T10:12:15;12.75;;;9.82;;
3369;SDS011;42042;51.948;7.628;2023-04-15T10:14:44;12.70;;;10.20;;
3369;SDS011;42042;51.948;7.628;2023-04-15T10:17:13;13.53;;;9.80;;
3369;SDS011;42042;51.948;7.628;2023-04-15T10:19:43;14.20;;;10.80;;
3369;SDS011;42042;51.948;7.628;2023-04-15T10:22:11;12.57;;;9.60;;
3369;SDS011;42042;51.948;7.628;2023-04-15T10:24:40;9.95;;;8.95;;
3369;SDS011;42042;51.948;7.628;2023-04-15T10:27:09;13.20;;;10.02;;
3369;SDS011;42042;51.948;7.628;2023-04-15T10:29:36;12.15;;;9.15;;
3369;SDS011;42042;51.948;7.628;2023-04-15T10:32:05;12.85;;;10.52;;
3369;SDS011;42042;51.948;7.628;2023-04-15T10:34:32;12.55;;;9.35;;
3369;SDS011;42042;51.948;7.628;2023-04-15T10:37:00;11.50;;;9.02;;
3369;SDS011;42042;51.948;7.628;2023-04-15T10:39:38;14.00;;;9.88;;
3369;SDS011;42042;51.948;7.628;2023-04-15T10:42:06;9.23;;;8.30;;
3369;SDS011;42042;51.948;7.628;2023-04-15T10:44:34;12.63;;;9.70;;
3369;SDS011;42042;51.948;7.628;2023-04-15T10:47:05;9.32;;;8.35;;
3369;SDS011;42042;51.948;7.628;2023-04-15T10:49:34;13.60;;;8.07;;
3369;SDS011;42042;51.948;7.628;2023-04-15T10:52:09;10.27;;;8.43;;
3369;SDS011;42042;51.948;7.628;2023-04-15T10:54:36;8.38;;;7.57;;
3369;SDS011;42042;51.948;7.628;2023-04-15T10:59:59;8.03;;;7.03;;
3369;SDS011;42042;51.948;7.628;2023-04-15T11:02:44;7.40;;;6.70;;
3369;SDS011;42042;51.948;7.628;2023-04-15T11:05:12;8.57;;;6.40;;
3369;SDS011;42042;51.948;7.628;2023-04-15T11:07:40;8.53;;;7.63;;
3369;SDS011;42042;51.948;7.628;2023-04-15T11:12:56;7.07;;;6.15;;
3369;SDS011;42042;51.948;7.628;2023-04-15T11:15:28;9.00;;;6.85;;
3369;SDS011;42042;51.948;7.628;2023-04-15T11:17:58;7.80;;;6.90;;
3369;SDS011;42042;51.948;7.628;2023-04-15T11:20:25;6.55;;;5.72;;
3369;SDS011;42042;51.948;7.628;2023-04-15T11:22:53;6.50;;;5.83;;
3369;SDS011;42042;51.948;7.628;2023-04-15T11:25:23;6.83;;;6.03;;
3369;SDS011;42042;51.948;7.628;2023-04-15T11:27:51;8.60;;;6.40;;
3369;SDS011;42042;51.948;7.628;2023-04-15T11:30:19;8.13;;;6.20;;
3369;SDS011;42042;51.948;7.628;2023-04-15T11:32:46;6.27;;;5.70;;
3369;SDS011;42042;51.948;7.628;2023-04-15T11:35:16;7.20;;;6.50;;
3369;SDS011;42042;51.948;7.628;2023-04-15T11:37:44;7.20;;;6.20;;
3369;SDS011;42042;51.948;7.628;2023-04-15T11:40:11;7.13;;;6.10;;
3369;SDS011;42042;51.948;7.628;2023-04-15T11:42:39;7.05;;;5.80;;
3369;SDS011;42042;51.948;7.628;2023-04-15T11:45:07;5.90;;;5.27;;
3369;SDS011;42042;51.948;7.628;2023-04-15T11:47:34;5.00;;;4.57;;
3369;SDS011;42042;51.948;7.628;2023-04-15T11:50:15;6.40;;;5.57;;
3369;SDS011;42042;51.948;7.628;2023-04-15T11:52:51;5.90;;;5.00;;
3369;SDS011;42042;51.948;7.628;2023-04-15T11:55:19;5.67;;;5.17;;
3369;SDS011;42042;51.948;7.628;2023-04-15T11:57:46;5.70;;;5.10;;
3369;SDS011;42042;51.948;7.628;2023-04-15T12:00:13;4.53;;;4.13;;
3369;SDS011;42042;51.948;7.628;2023-04-15T12:02:44;6.20;;;5.60;;
3369;SDS011;42042;51.948;7.628;2023-04-15T12:05:11;6.03;;;5.43;;
3369;SDS011;42042;51.948;7.628;2023-04-15T12:08:02;4.80;;;4.37;;
3369;SDS011;42042;51.948;7.628;2023-04-15T12:10:31;5.10;;;4.40;;
3369;SDS011;42042;51.948;7.628;2023-04-15T12:13:00;5.60;;;4.47;;
3369;SDS011;42042;51.948;7.628;2023-04-15T12:15:36;5.43;;;4.32;;
3369;SDS011;42042;51.948;7.628;2023-04-15T12:18:03;5.50;;;5.10;;
3369;SDS011;42042;51.948;7.628;2023-04-15T12:20:31;5.35;;;4.82;;
3369;SDS011;42042;51.948;7.628;2023-04-15T12:23:05;5.00;;;4.50;;
3369;SDS011;42042;51.948;7.628;2023-04-15T12:25:35;3.85;;;3.50;;
3369;SDS011;42042;51.948;7.628;2023-04-15T12:28:09;6.80;;;4.50;;
3369;SDS011;42042;51.948;7.628;2023-04-15T12:30:47;4.97;;;4.45;;
3369;SDS011;42042;51.948;7.628;2023-04-15T12:33:15;5.83;;;4.20;;
3369;SDS011;42042;51.948;7.628;2023-04-15T12:35:42;5.40;;;4.43;;
3369;SDS011;42042;51.948;7.628;2023-04-15T12:38:11;5.10;;;3.80;;
3369;SDS011;42042;51.948;7.628;2023-04-15T12:40:38;4.57;;;4.15;;
3369;SDS011;42042;51.948;7.628;2023-04-15T12:43:05;5.40;;;4.90;;
3369;SDS011;42042;51.948;7.628;2023-04-15T12:45:32;6.10;;;5.50;;
3369;SDS011;42042;51.948;7.628;2023-04-15T12:47:59;5.20;;;4.70;;
3369;SDS011;42042;51.948;7.628;2023-04-15T12:50:27;5.00;;;4.50;;
3369;SDS011;42042;51.948;7.628;2023-04-15T12:52:54;5.33;;;4.83;;
3369;SDS011;42042;51.948;7.628;2023-04-15T12:55:22;5.53;;;5.03;;
3369;SDS011;42042;51.948;7.628;2023-04-15T12:57:50;4.90;;;4.40;;
3369;SDS011;42042;51.948;7.628;2023-04-15T13:00:18;4.57;;;4.17;;
3369;SDS011;42042;51.948;7.628;2023-04-15T13:02:45;5.93;;;5.43;;
3369;SDS011;42042;51.948;7.628;2023-04-15T13:05:13;5.63;;;4.77;;
3369;SDS011;42042;51.948;7.628;2023-04-15T13:07:41;5.10;;;4.60;;
3369;SDS011;42042;51.948;7.628;2023-04-15T13:10:11;5.13;;;4.67;;
3369;SDS011;42042;51.948;7.628;2023-04-15T13:12:39;6.43;;;4.20;;
3369;SDS011;42042;51.948;7.628;2023-04-15T13:15:09;5.50;;;5.00;;
3369;SDS011;42042;51.948;7.628;2023-04-15T13:17:37;5.43;;;4.90;;
3369;SDS011;42042;51.948;7.628;2023-04-15T13:20:04;5.90;;;4.43;;
3369;SDS011;42042;51.948;7.628;2023-04-15T13:22:34;6.67;;;5.37;;
3369;SDS011;42042;51.948;7.628;2023-04-15T13:25:02;5.37;;;4.87;;
3369;SDS011;42042;51.948;7.628;2023-04-15T13:27:29;5.13;;;4.20;;
3369;SDS011;42042;51.948;7.628;2023-04-15T13:29:57;4.72;;;4.32;;
3369;SDS011;42042;51.948;7.628;2023-04-15T13:32:25;5.80;;;5.00;;
3369;SDS011;42042;51.948;7.628;2023-04-15T13:34:52;5.63;;;5.03;;
3369;SDS011;42042;51.948;7.628;2023-04-15T13:37:21;5.13;;;4.63;;
3369;SDS011;42042;51.948;7.628;2023-04-15T13:39:53;6.63;;;4.18;;
3369;SDS011;42042;51.948;7.628;2023-04-15T13:42:21;5.47;;;4.30;;
3369;SDS011;42042;51.948;7.628;2023-04-15T13:44:48;4.82;;;4.05;;
3369;SDS011;42042;51.948;7.628;2023-04-15T13:47:17;5.05;;;4.20;;
3369;SDS011;42042;51.948;7.628;2023-04-15T13:49:46;5.85;;;5.25;;
3369;SDS011;42042;51.948;7.628;2023-04-15T13:52:13;5.70;;;5.20;;
3369;SDS011;42042;51.948;7.628;2023-04-15T13:54:40;4.55;;;4.15;;
3369;SDS011;42042;51.948;7.628;2023-04-15T13:57:07;5.00;;;4.45;;
3369;SDS011;42042;51.948;7.628;2023-04-15T13:59:35;6.73;;;4.50;;
3369;SDS011;42042;51.948;7.628;2023-04-15T14:02:02;5.00;;;4.50;;
3369;SDS011;42042;51.948;7.628;2023-04-15T14:04:33;5.70;;;4.77;;
3369;SDS011;42042;51.948;7.628;2023-04-15T14:07:00;5.13;;;4.65;;
3369;SDS011;42042;51.948;7.628;2023-04-15T14:09:28;5.40;;;4.97;;
3369;SDS011;42042;51.948;7.628;2023-04-15T14:11:55;7.78;;;7.00;;
3369;SDS011;42042;51.948;7.628;2023-04-15T14:14:26;5.40;;;4.87;;
3369;SDS011;42042;51.948;7.628;2023-04-15T14:16:54;6.17;;;5.27;;
3369;SDS011;42042;51.948;7.628;2023-04-15T14:19:21;5.20;;;4.73;;
3369;SDS011;42042;51.948;7.628;2023-04-15T14:21:50;7.60;;;6.25;;
3369;SDS011;42042;51.948;7.628;2023-04-15T14:24:18;7.03;;;5.28;;
3369;SDS011;42042;51.948;7.628;2023-04-15T14:26:45;6.53;;;6.00;;
3369;SDS011;42042;51.948;7.628;2023-04-15T14:29:12;7.30;;;5.80;;
3369;SDS011;42042;51.948;7.628;2023-04-15T14:31:39;8.33;;;5.90;;
3369;SDS011;42042;51.948;7.628;2023-04-15T14:34:08;6.97;;;6.20;;
3369;SDS011;42042;51.948;7.628;2023-04-15T14:36:35;6.30;;;5.45;;
3369;SDS011;42042;51.948;7.628;2023-04-15T14:39:04;6.55;;;5.95;;
3369;SDS011;42042;51.948;7.628;2023-04-15T14:41:33;6.97;;;6.27;;
3369;SDS011;42042;51.948;7.628;2023-04-15T14:44:00;9.43;;;5.80;;
3369;SDS011;42042;51.948;7.628;2023-04-15T14:46:30;8.52;;;6.60;;
3369;SDS011;42042;51.948;7.628;2023-04-15T14:48:58;7.68;;;6.82;;
3369;SDS011;42042;51.948;7.628;2023-04-15T14:51:25;7.95;;;6.00;;
3369;SDS011;42042;51.948;7.628;2023-04-15T14:53:52;9.38;;;7.38;;
3369;SDS011;42042;51.948;7.628;2023-04-15T14:56:21;8.18;;;7.47;;
3369;SDS011;42042;51.948;7.628;2023-04-15T14:58:51;8.00;;;6.88;;